Buoy 46612

sailwx.info

Track history (hours):
 
Tides and Currents Weather Stations Pressure Air Temp Water Temp Dewpoint Dewpoint Depression Visibility Wind Speed Wind Dir Waves Ship Positions

Drifting buoy 46612

Last reported at 2015-Feb-27 20:00 UTC. Time now 2015-Feb-27 22:49 UTC.
Position N 29°52' W 138°46'.

Water temperature 19.1 ° C

Date/timePositionNaut miles runAvg speedWind from/ knotsBaromVisibWave heightAir tempDewpointWater temp
2015-Feb-27 20:00N 29°52' W 138°46'2 0.7 19.1
2015-Feb-27 17:00N 29°54' W 138°46'1 0.2 19.0
2015-Feb-27 14:00N 29°54' W 138°46'0 0.0 19.1
2015-Feb-27 13:00N 29°54' W 138°46'1 0.9 19.0
2015-Feb-27 12:00N 29°54' W 138°45'1 0.3 19.0
2015-Feb-27 10:00N 29°55' W 138°45'1 0.2 19.1
2015-Feb-27 05:00N 29°56' W 138°44'1 0.5 19.1
2015-Feb-27 03:00N 29°57' W 138°44'1 0.4 19.2
2015-Feb-27 00:00N 29°58' W 138°43'2 0.6 19.2
2015-Feb-26 21:00N 29°60' W 138°43'1 0.2 19.2
2015-Feb-26 15:00N 30°01' W 138°43'0 0.3 19.3
2015-Feb-26 14:00N 30°01' W 138°42'0 0.2 19.3
2015-Feb-26 13:00N 30°01' W 138°42'1 0.4 19.3
2015-Feb-26 11:00N 30°01' W 138°42'0 0.2 19.3
2015-Feb-26 09:00N 30°01' W 138°42'1 0.6 19.3
2015-Feb-26 07:00N 30°02' W 138°41'1 0.6 19.3
2015-Feb-26 06:00N 30°02' W 138°40'0 0.3 19.3
2015-Feb-26 05:00N 30°02' W 138°40'0 0.0 19.3
2015-Feb-26 04:00N 30°02' W 138°40'0 0.0 19.3
2015-Feb-26 02:00N 30°02' W 138°40'0 0.1 19.3
2015-Feb-26 01:00N 30°02' W 138°40'1 0.7 19.3
2015-Feb-26 00:00N 30°02' W 138°39'0 0.1 19.3
2015-Feb-25 23:00N 30°02' W 138°39'1 0.8 19.3
2015-Feb-25 22:00N 30°02' W 138°39'0 0.1 19.3
2015-Feb-25 19:00N 30°02' W 138°39'0 0.0 19.2
2015-Feb-25 18:00N 30°02' W 138°39'1 0.2 19.2
2015-Feb-25 15:00N 30°02' W 138°38'0 0.0 19.2
2015-Feb-25 12:00N 30°03' W 138°38'0 0.3 19.1
2015-Feb-25 11:00N 30°02' W 138°38'0 0.1 19.1
2015-Feb-25 07:00N 30°02' W 138°38'0 0.4 19.0
2015-Feb-25 06:00N 30°02' W 138°37'1 0.3 19.2
2015-Feb-25 03:00N 30°02' W 138°36'0 0.1 19.3
2015-Feb-25 02:00N 30°02' W 138°36'1 0.7 19.3
2015-Feb-25 01:00N 30°02' W 138°35'0 0.1 19.4
2015-Feb-24 23:00N 30°03' W 138°35'0 0.0 19.4
2015-Feb-24 22:00N 30°03' W 138°35'0 0.0 19.4
2015-Feb-24 21:00N 30°03' W 138°35'0 0.4 19.4
2015-Feb-24 20:00N 30°03' W 138°35'0 0.4 19.3
2015-Feb-24 19:00N 30°03' W 138°36'0 0.1 19.3
2015-Feb-24 18:00N 30°03' W 138°36'0 0.1 19.3
2015-Feb-24 16:00N 30°03' W 138°35'0 0.3 19.3
2015-Feb-24 15:00N 30°03' W 138°35'1 0.5 19.3
2015-Feb-24 14:00N 30°02' W 138°35'0 0.0 19.3
2015-Feb-24 13:00N 30°02' W 138°35'0 0.0 19.3
2015-Feb-24 12:00N 30°02' W 138°35'2 0.3 19.3
2015-Feb-24 07:00N 30°02' W 138°33'1 1.0 19.3
2015-Feb-24 06:00N 30°03' W 138°32'0 0.0 19.4
2015-Feb-24 05:00N 30°03' W 138°32'0 0.2 19.4
2015-Feb-24 03:00N 30°03' W 138°32'1 0.5 19.4
2015-Feb-24 02:00N 30°03' W 138°33'0 0.5 19.4
2015-Feb-24 01:00N 30°03' W 138°32'0 0.2 19.4
2015-Feb-23 23:00N 30°03' W 138°33'1 0.6 19.5
2015-Feb-23 22:00N 30°04' W 138°33'1 0.5 19.5
2015-Feb-23 20:00N 30°03' W 138°32'1 0.4 19.4
2015-Feb-23 18:00N 30°03' W 138°31'0 0.0 19.3
2015-Feb-23 17:00N 30°03' W 138°31'0 0.1 19.3
2015-Feb-23 15:00N 30°03' W 138°31'1 0.4 19.3
2015-Feb-23 13:00N 30°03' W 138°30'0 0.4 19.3
2015-Feb-23 12:00N 30°03' W 138°30'1 0.3 19.3
2015-Feb-23 09:00N 30°03' W 138°29'0 0.0 19.3
2015-Feb-23 08:00N 30°03' W 138°29'0 0.2 19.3
2015-Feb-23 06:00N 30°03' W 138°29'0 0.3 19.3
2015-Feb-23 05:00N 30°04' W 138°29'1 0.7 19.4
2015-Feb-23 04:00N 30°03' W 138°29'0 0.2 19.4
2015-Feb-23 03:00N 30°03' W 138°29'1 0.5 19.4
2015-Feb-23 02:00N 30°03' W 138°29'0 0.0 19.4
2015-Feb-23 01:00N 30°03' W 138°29'0 0.0 19.4
2015-Feb-22 22:00N 30°03' W 138°29'2 0.8 19.4
2015-Feb-22 20:00N 30°03' W 138°27'0 0.0 19.4
2015-Feb-22 19:00N 30°03' W 138°27'2 0.6 19.4
2015-Feb-22 15:00N 30°04' W 138°24'1 0.6 19.1
2015-Feb-22 14:00N 30°04' W 138°24'1 0.5 19.1
2015-Feb-22 13:00N 30°05' W 138°24'1 0.6 19.0
2015-Feb-22 12:00N 30°04' W 138°23'1 0.2 19.0
2015-Feb-22 06:00N 30°04' W 138°22'1 1.1 19.2
2015-Feb-22 05:00N 30°03' W 138°21'0 0.0 19.2
2015-Feb-22 03:00N 30°03' W 138°21'0 0.4 19.3
2015-Feb-22 02:00N 30°03' W 138°21'1 0.6 19.3
2015-Feb-22 01:00N 30°02' W 138°21'0 0.4 19.3
2015-Feb-22 00:00N 30°02' W 138°21'0 0.0 19.3
2015-Feb-21 23:00N 30°02' W 138°21'1 0.3 19.3
2015-Feb-21 19:00N 30°01' W 138°20'1 0.5 19.3
2015-Feb-21 16:00N 30°00' W 138°18'1 0.2 19.2
2015-Feb-21 12:00N 29°60' W 138°17'2 0.2 19.2
2015-Feb-21 05:00N 29°59' W 138°16'3 0.5 19.4
2015-Feb-21 00:00N 29°59' W 138°13'0 0.0 19.6
2015-Feb-20 23:00N 29°59' W 138°13'0 0.0 19.5
2015-Feb-20 21:00N 29°59' W 138°13'0 0.5 19.3
2015-Feb-20 20:00N 29°58' W 138°12'0 0.4 19.3
2015-Feb-20 19:00N 29°59' W 138°13'0 0.1 19.3
2015-Feb-20 17:00N 29°58' W 138°13'0 0.0 19.3
2015-Feb-20 16:00N 29°58' W 138°13'0 0.1 19.2
2015-Feb-20 13:00N 29°58' W 138°13'2 0.3 19.3
2015-Feb-20 06:00N 29°57' W 138°11'1 0.3 19.5
2015-Feb-20 03:00N 29°57' W 138°10'0 0.4 19.4
2015-Feb-20 02:00N 29°57' W 138°10'1 0.1 19.4
2015-Feb-19 19:00N 29°58' W 138°11'0 0.2 19.2
2015-Feb-19 17:00N 29°58' W 138°11'1 0.7 19.2
2015-Feb-19 16:00N 29°57' W 138°11'0 0.0 19.2
2015-Feb-19 13:00N 29°57' W 138°11'1 0.2 19.2
2015-Feb-19 05:00N 29°57' W 138°09'0 0.0 19.2
2015-Feb-19 04:00N 29°57' W 138°09'1 0.4 19.2
2015-Feb-19 02:00N 29°58' W 138°10'1 0.5 19.3
2015-Feb-18 23:00N 29°58' W 138°11'2 0.3 19.4
2015-Feb-18 16:00N 29°56' W 138°11'0 0.4 19.2
2015-Feb-18 15:00N 29°56' W 138°11'1 0.5 19.2
2015-Feb-18 14:00N 29°56' W 138°10'1 0.6 19.2
2015-Feb-18 13:00N 29°56' W 138°10'0 0.0 19.2
2015-Feb-18 12:00N 29°56' W 138°10'1 0.2 19.2
2015-Feb-18 07:00N 29°57' W 138°10'0 0.1 19.2
2015-Feb-18 06:00N 29°57' W 138°10'0 0.1 19.2
2015-Feb-18 03:00N 29°58' W 138°10'1 0.5 19.3
2015-Feb-18 01:00N 29°58' W 138°11'0 0.3 19.3
2015-Feb-18 00:00N 29°58' W 138°11'0 0.1 19.4
2015-Feb-17 23:00N 29°58' W 138°11'1 0.4 19.4
2015-Feb-17 21:00N 29°57' W 138°12'1 0.8 19.4
2015-Feb-17 20:00N 29°57' W 138°11'   19.3
Track history (hours):
 
Tides and Currents Weather Stations Pressure Air Temp Water Temp Dewpoint Dewpoint Depression Visibility Wind Speed Wind Dir Waves Ship Positions

Drifting buoy 46612

Last reported at 2015-Feb-27 20:00 UTC. Time now 2015-Feb-27 22:49 UTC.
Position N 29°52' W 138°46'.

Water temperature 19.1 ° C

Date/timePositionNaut miles runAvg speedWind from/ knotsBaromVisibWave heightAir tempDewpointWater temp
2015-Feb-27 20:00N 29°52' W 138°46'2 0.7 19.1
2015-Feb-27 17:00N 29°54' W 138°46'1 0.2 19.0
2015-Feb-27 14:00N 29°54' W 138°46'0 0.0 19.1
2015-Feb-27 13:00N 29°54' W 138°46'1 0.9 19.0
2015-Feb-27 12:00N 29°54' W 138°45'1 0.3 19.0
2015-Feb-27 10:00N 29°55' W 138°45'1 0.2 19.1
2015-Feb-27 05:00N 29°56' W 138°44'1 0.5 19.1
2015-Feb-27 03:00N 29°57' W 138°44'1 0.4 19.2
2015-Feb-27 00:00N 29°58' W 138°43'2 0.6 19.2
2015-Feb-26 21:00N 29°60' W 138°43'1 0.2 19.2
2015-Feb-26 15:00N 30°01' W 138°43'0 0.3 19.3
2015-Feb-26 14:00N 30°01' W 138°42'0 0.2 19.3
2015-Feb-26 13:00N 30°01' W 138°42'1 0.4 19.3
2015-Feb-26 11:00N 30°01' W 138°42'0 0.2 19.3
2015-Feb-26 09:00N 30°01' W 138°42'1 0.6 19.3
2015-Feb-26 07:00N 30°02' W 138°41'1 0.6 19.3
2015-Feb-26 06:00N 30°02' W 138°40'0 0.3 19.3
2015-Feb-26 05:00N 30°02' W 138°40'0 0.0 19.3
2015-Feb-26 04:00N 30°02' W 138°40'0 0.0 19.3
2015-Feb-26 02:00N 30°02' W 138°40'0 0.1 19.3
2015-Feb-26 01:00N 30°02' W 138°40'1 0.7 19.3
2015-Feb-26 00:00N 30°02' W 138°39'0 0.1 19.3
2015-Feb-25 23:00N 30°02' W 138°39'1 0.8 19.3
2015-Feb-25 22:00N 30°02' W 138°39'0 0.1 19.3
2015-Feb-25 19:00N 30°02' W 138°39'0 0.0 19.2
2015-Feb-25 18:00N 30°02' W 138°39'1 0.2 19.2
2015-Feb-25 15:00N 30°02' W 138°38'0 0.0 19.2
2015-Feb-25 12:00N 30°03' W 138°38'0 0.3 19.1
2015-Feb-25 11:00N 30°02' W 138°38'0 0.1 19.1
2015-Feb-25 07:00N 30°02' W 138°38'0 0.4 19.0
2015-Feb-25 06:00N 30°02' W 138°37'1 0.3 19.2
2015-Feb-25 03:00N 30°02' W 138°36'0 0.1 19.3
2015-Feb-25 02:00N 30°02' W 138°36'1 0.7 19.3
2015-Feb-25 01:00N 30°02' W 138°35'0 0.1 19.4
2015-Feb-24 23:00N 30°03' W 138°35'0 0.0 19.4
2015-Feb-24 22:00N 30°03' W 138°35'0 0.0 19.4
2015-Feb-24 21:00N 30°03' W 138°35'0 0.4 19.4
2015-Feb-24 20:00N 30°03' W 138°35'0 0.4 19.3
2015-Feb-24 19:00N 30°03' W 138°36'0 0.1 19.3
2015-Feb-24 18:00N 30°03' W 138°36'0 0.1 19.3
2015-Feb-24 16:00N 30°03' W 138°35'0 0.3 19.3
2015-Feb-24 15:00N 30°03' W 138°35'1 0.5 19.3
2015-Feb-24 14:00N 30°02' W 138°35'0 0.0 19.3
2015-Feb-24 13:00N 30°02' W 138°35'0 0.0 19.3
2015-Feb-24 12:00N 30°02' W 138°35'2 0.3 19.3
2015-Feb-24 07:00N 30°02' W 138°33'1 1.0 19.3
2015-Feb-24 06:00N 30°03' W 138°32'0 0.0 19.4
2015-Feb-24 05:00N 30°03' W 138°32'0 0.2 19.4
2015-Feb-24 03:00N 30°03' W 138°32'1 0.5 19.4
2015-Feb-24 02:00N 30°03' W 138°33'0 0.5 19.4
2015-Feb-24 01:00N 30°03' W 138°32'0 0.2 19.4
2015-Feb-23 23:00N 30°03' W 138°33'1 0.6 19.5
2015-Feb-23 22:00N 30°04' W 138°33'1 0.5 19.5
2015-Feb-23 20:00N 30°03' W 138°32'1 0.4 19.4
2015-Feb-23 18:00N 30°03' W 138°31'0 0.0 19.3
2015-Feb-23 17:00N 30°03' W 138°31'0 0.1 19.3
2015-Feb-23 15:00N 30°03' W 138°31'1 0.4 19.3
2015-Feb-23 13:00N 30°03' W 138°30'0 0.4 19.3
2015-Feb-23 12:00N 30°03' W 138°30'1 0.3 19.3
2015-Feb-23 09:00N 30°03' W 138°29'0 0.0 19.3
2015-Feb-23 08:00N 30°03' W 138°29'0 0.2 19.3
2015-Feb-23 06:00N 30°03' W 138°29'0 0.3 19.3
2015-Feb-23 05:00N 30°04' W 138°29'1 0.7 19.4
2015-Feb-23 04:00N 30°03' W 138°29'0 0.2 19.4
2015-Feb-23 03:00N 30°03' W 138°29'1 0.5 19.4
2015-Feb-23 02:00N 30°03' W 138°29'0 0.0 19.4
2015-Feb-23 01:00N 30°03' W 138°29'0 0.0 19.4
2015-Feb-22 22:00N 30°03' W 138°29'2 0.8 19.4
2015-Feb-22 20:00N 30°03' W 138°27'0 0.0 19.4
2015-Feb-22 19:00N 30°03' W 138°27'2 0.6 19.4
2015-Feb-22 15:00N 30°04' W 138°24'1 0.6 19.1
2015-Feb-22 14:00N 30°04' W 138°24'1 0.5 19.1
2015-Feb-22 13:00N 30°05' W 138°24'1 0.6 19.0
2015-Feb-22 12:00N 30°04' W 138°23'1 0.2 19.0
2015-Feb-22 06:00N 30°04' W 138°22'1 1.1 19.2
2015-Feb-22 05:00N 30°03' W 138°21'0 0.0 19.2
2015-Feb-22 03:00N 30°03' W 138°21'0 0.4 19.3
2015-Feb-22 02:00N 30°03' W 138°21'1 0.6 19.3
2015-Feb-22 01:00N 30°02' W 138°21'0 0.4 19.3
2015-Feb-22 00:00N 30°02' W 138°21'0 0.0 19.3
2015-Feb-21 23:00N 30°02' W 138°21'1 0.3 19.3
2015-Feb-21 19:00N 30°01' W 138°20'1 0.5 19.3
2015-Feb-21 16:00N 30°00' W 138°18'1 0.2 19.2
2015-Feb-21 12:00N 29°60' W 138°17'2 0.2 19.2
2015-Feb-21 05:00N 29°59' W 138°16'3 0.5 19.4
2015-Feb-21 00:00N 29°59' W 138°13'0 0.0 19.6
2015-Feb-20 23:00N 29°59' W 138°13'0 0.0 19.5
2015-Feb-20 21:00N 29°59' W 138°13'0 0.5 19.3
2015-Feb-20 20:00N 29°58' W 138°12'0 0.4 19.3
2015-Feb-20 19:00N 29°59' W 138°13'0 0.1 19.3
2015-Feb-20 17:00N 29°58' W 138°13'0 0.0 19.3
2015-Feb-20 16:00N 29°58' W 138°13'0 0.1 19.2
2015-Feb-20 13:00N 29°58' W 138°13'2 0.3 19.3
2015-Feb-20 06:00N 29°57' W 138°11'1 0.3 19.5
2015-Feb-20 03:00N 29°57' W 138°10'0 0.4 19.4
2015-Feb-20 02:00N 29°57' W 138°10'1 0.1 19.4
2015-Feb-19 19:00N 29°58' W 138°11'0 0.2 19.2
2015-Feb-19 17:00N 29°58' W 138°11'1 0.7 19.2
2015-Feb-19 16:00N 29°57' W 138°11'0 0.0 19.2
2015-Feb-19 13:00N 29°57' W 138°11'1 0.2 19.2
2015-Feb-19 05:00N 29°57' W 138°09'0 0.0 19.2
2015-Feb-19 04:00N 29°57' W 138°09'1 0.4 19.2
2015-Feb-19 02:00N 29°58' W 138°10'1 0.5 19.3
2015-Feb-18 23:00N 29°58' W 138°11'2 0.3 19.4
2015-Feb-18 16:00N 29°56' W 138°11'0 0.4 19.2
2015-Feb-18 15:00N 29°56' W 138°11'1 0.5 19.2
2015-Feb-18 14:00N 29°56' W 138°10'1 0.6 19.2
2015-Feb-18 13:00N 29°56' W 138°10'0 0.0 19.2
2015-Feb-18 12:00N 29°56' W 138°10'1 0.2 19.2
2015-Feb-18 07:00N 29°57' W 138°10'0 0.1 19.2
2015-Feb-18 06:00N 29°57' W 138°10'0 0.1 19.2
2015-Feb-18 03:00N 29°58' W 138°10'1 0.5 19.3
2015-Feb-18 01:00N 29°58' W 138°11'0 0.3 19.3
2015-Feb-18 00:00N 29°58' W 138°11'0 0.1 19.4
2015-Feb-17 23:00N 29°58' W 138°11'1 0.4 19.4
2015-Feb-17 21:00N 29°57' W 138°12'1 0.8 19.4
2015-Feb-17 20:00N 29°57' W 138°11'   19.3

Dump ship's entire track history